Форум

Прощай, Руслан...

Страницы: 1 2 34 5 6 7 8 9 10 11 12 13 14

Автор Сообщение


Шило (Про100й)

Сейчас: офлайн
Был(а) на сайте: 21.10.2017 в 15:44
Сообщений: 19633
Регистрация: 14.02.2012
  (0)  
Добавлено: 07.04.2012 10:04
---------


Stanislav

Сейчас: офлайн
Был(а) на сайте: 12.09.2014 в 20:57
Сообщений: 6969
Блог: Блог пользователя
Регистрация: 12.11.2011

  (0)  
Добавлено: 07.04.2012 10:10
--------------------------------------------------------------------------------------------------------------


керосин - основа тяги

Сейчас: офлайн
Был(а) на сайте: 04.08.2016 в 11:40
Сообщений: 9504
Регистрация: 16.01.2012
  (0)  
Добавлено: 07.04.2012 10:47
Мда... Печально... Царствие небесного погибшим!


Slavantroid

Сейчас: офлайн
Был(а) на сайте: 12.12.2014 в 18:18
Сообщений: 2955
Регистрация: 03.02.2011
  (0)  
Добавлено: 07.04.2012 10:54
Земля пухом погибшим


Лысюк Олег

Сейчас: офлайн
Был(а) на сайте: 13.05.2015 в 00:51
Сообщений: 141
Регистрация: 07.09.2011
  (0)  
Добавлено: 07.04.2012 10:54
Вечная память .Царствие небесное.
Мои соболезнования родным и близким.....


Пилот Ан-2

Сейчас: офлайн
Был(а) на сайте: 22.10.2017 в 11:59
Сообщений: 5931
Регистрация: 15.02.2011

mailru
  (0)  
Добавлено: 07.04.2012 11:46
Как же так.................
Вечного полёта Руслану и его пассажирам.....................................


Гарнаев Александр Юрьевич

Сейчас: офлайн
Был(а) на сайте: 10.07.2015 в 21:52
Сообщений: 2722
Регистрация: 04.10.2011

livejournal
  (0)  
Добавлено: 07.04.2012 11:49 Изменено: 07.04.2012 11:50
. . .
Автор: Бро
Но сама конструкция модернизированной Тэхи достаточно сыровата ....
Земля пухом.
i.m.h.o. не "сыровата", а безумна - профессиональных испытаний (в том же ЛИИ) сей ероплант
(в отличие от ЯК-18Т) не проходил, рассчитан с авантюрным пренебрежением любыми нормируемыми критериями безопасности (по тем же градиентам набора) - с 4-мя людьми на борту и нормальной заправкой может взлететь только с учетом кривизны Земли :((


Дима

Сейчас: офлайн
Был(а) на сайте: 13.09.2017 в 05:32
Сообщений: 25020
Регистрация: 15.01.2012
  (0)  
Добавлено: 07.04.2012 12:11
.............


Doctor . (Игорь)

Сейчас: офлайн
Был(а) на сайте: 13.12.2016 в 15:32
Сообщений: 2614
Регистрация: 26.08.2011

  (0)  
Добавлено: 07.04.2012 12:49
.................


Гарнаев Александр Юрьевич

Сейчас: офлайн
Был(а) на сайте: 10.07.2015 в 21:52
Сообщений: 2722
Регистрация: 04.10.2011

livejournal
  (0)  
Добавлено: 07.04.2012 15:30
Прям какое-то наваждение :
- сидим щас во Владивостоке, паримся в бане, и один мой немолодой коллега - пилот А330 (бесконечно далекий и от АОН, и от i-net-форумов) заговорил как его племяшу лучше становиться пилотом ... рассказал как неизвестный ему Руслан Ибрагимов уже наметил курс подготовки у себя до PPL, а затем - у чешских партнеров до CPL ... ...


Иванов Сергей

Сейчас: офлайн
Был(а) на сайте: 28.04.2013 в 18:56
Сообщений: 810
Регистрация: 19.09.2011
  (0)  
Добавлено: 07.04.2012 16:51
Земля пухом погибшим......


Иванов Сергей

Сейчас: офлайн
Был(а) на сайте: 28.04.2013 в 18:56
Сообщений: 810
Регистрация: 19.09.2011
  (0)  
Добавлено: 07.04.2012 16:56
Автор: FLYER
Хотелось бы понять причину.


Вариантов- то немного совсем....


Бро

Сейчас: офлайн
Был(а) на сайте: 02.04.2014 в 04:42
Сообщений: 4631
Регистрация: 11.01.2012
  (0)  
Добавлено: 07.04.2012 16:58
Четырехместный самолет СМ-2000 взлетел с частного аэродрома «Кудиново» вчера, 18.45. По одной из версий он направлялся с пассажирами в Москву, по другой – пилот просто решил покатать компанию молодых людей. Через 10 минут полет закончился…
......
Он должен был сделать над аэродромом три круга, а сделал четыре… А потом к лесу пошел, и за ним скрылся… Вскоре нам позвонили и сказали – «тут ваш самолет упал»…
......
Весь день летал, жужжал, кувыркался в воздухе. А тут, вечером, смотрим, летит он как-то странно, и вроде не снижается, а падает. Ну, мы и побежали туда.
Бежать свидетелям пришлось больше километра. Самолет уже лежал на земле. Ни взрыва, ни огня, ни дыми не было.

http://kp.ru/daily/25864/2830719/
======================
Закат в 20:18
Погодные условия близки к идеальным. Во Внуково (90 км севернее Кудиново):

06-04-2012 18:00 METAR UUWW 061800Z 16004MPS CAVOK M00/M06 Q1011 19120060 NOSIG =
06-04-2012 18:30 METAR UUWW 061830Z 14004MPS CAVOK M00/M06 Q1011 19120060 NOSIG =
06-04-2012 19:00 METAR UUWW 061900Z 16005MPS CAVOK M01/M06 Q1011 19120060 NOSIG =
06-04-2012 19:30 METAR UUWW 061930Z 16004MPS CAVOK M01/M06 Q1011 19120060 NOSIG =
06-04-2012 20:00 METAR UUWW 062000Z 16004MPS CAVOK M01/M06 Q1010 19120060 NOSIG =

======================


Валера =вта=

Сейчас: офлайн
Был(а) на сайте: 17.10.2017 в 20:38
Сообщений: 5610
Регистрация: 19.10.2011
  (0)  
Добавлено: 07.04.2012 17:07
а там движок бензиновый?


Бро

Сейчас: офлайн
Был(а) на сайте: 02.04.2014 в 04:42
Сообщений: 4631
Регистрация: 11.01.2012
  (0)  
Добавлено: 07.04.2012 17:11
Автор: Валера =вта=
а там движок бензиновый?


Да. Старый добрый М14П.
http://smaz.ru/avia/sm2000p.php

Страницы: 1 2 34 5 6 7 8 9 10 11 12 13 14

Пользователи

Сейчас на форуме 50 посетителей: зарегистрированных 2, гостей 48

Skvater S   max9283 max9283  

Недавно были

Горбунов Вадим Николаевич40 минут назад изо бредатель 53 минуты назад
39264 ртс 1 час назад Бишкекец Игорь 1 час назад
гуров петр васильевич1 час назад федоров юрий борисович1 час назад
Журавлик * 6 часов назад Журавлев Василий 9 часов назад
Сообщить об ошибке
Поддержка сайта - Яркие решения